createdAt,value
2022-11-15T00:01:26.192Z,34.60
2022-11-15T00:03:54.725Z,35.93
2022-11-15T00:06:23.005Z,38.40
2022-11-15T00:08:51.260Z,37.03
2022-11-15T00:11:19.535Z,34.60
2022-11-15T00:13:49.571Z,34.30
2022-11-15T00:16:17.895Z,36.17
2022-11-15T00:18:50.404Z,37.57
2022-11-15T00:21:19.877Z,38.13
2022-11-15T00:23:48.173Z,36.17
2022-11-15T00:26:17.675Z,34.90
2022-11-15T00:28:46.032Z,37.83
2022-11-15T00:31:17.511Z,36.83
2022-11-15T00:33:46.936Z,36.97
2022-11-15T00:36:15.571Z,36.00
2022-11-15T00:38:43.993Z,35.70
2022-11-15T00:41:12.272Z,34.07
2022-11-15T00:43:41.090Z,34.10
2022-11-15T00:46:10.688Z,34.47
2022-11-15T00:48:40.384Z,34.40
2022-11-15T00:51:08.635Z,37.80
2022-11-15T00:53:37.125Z,35.00
2022-11-15T00:56:06.140Z,32.30
2022-11-15T00:58:34.644Z,34.63
2022-11-15T01:01:13.550Z,32.27
2022-11-15T01:03:43.815Z,33.17
2022-11-15T01:06:13.633Z,30.27
2022-11-15T01:08:42.215Z,34.20
2022-11-15T01:11:13.784Z,35.03
2022-11-15T01:13:42.518Z,35.83
2022-11-15T01:16:14.253Z,39.37
2022-11-15T01:18:43.922Z,37.40
2022-11-15T01:21:14.869Z,37.10
2022-11-15T01:23:43.367Z,36.17
2022-11-15T01:26:15.880Z,36.80
2022-11-15T01:28:45.082Z,38.87
2022-11-15T01:31:18.668Z,35.10
2022-11-15T01:33:49.607Z,37.87
2022-11-15T01:36:22.658Z,37.93
2022-11-15T01:38:56.307Z,34.80
2022-11-15T01:41:27.568Z,38.00
2022-11-15T01:43:58.438Z,36.97
2022-11-15T01:46:34.596Z,39.10
2022-11-15T01:49:13.495Z,38.77
2022-11-15T01:51:42.165Z,35.13
2022-11-15T01:54:15.752Z,36.43
2022-11-15T01:56:49.987Z,36.57
2022-11-15T01:59:18.559Z,34.87
2022-11-15T02:01:47.233Z,35.53
2022-11-15T02:04:21.474Z,35.33
2022-11-15T02:06:51.119Z,35.53
2022-11-15T02:09:20.096Z,34.03
2022-11-15T02:11:50.659Z,36.23
2022-11-15T02:14:21.552Z,36.53
2022-11-15T02:17:01.293Z,34.57
2022-11-15T02:20:11.838Z,35.53
2022-11-15T02:22:50.161Z,34.90
2022-11-15T02:25:40.706Z,36.97
2022-11-15T02:28:47.101Z,32.03
2022-11-15T02:31:27.594Z,35.20
2022-11-15T02:34:04.325Z,35.93
2022-11-15T02:36:43.781Z,37.50
2022-11-15T02:39:21.290Z,35.47
2022-11-15T02:41:54.893Z,35.30
2022-11-15T02:44:29.120Z,34.40
2022-11-15T02:47:16.498Z,40.20
2022-11-15T02:49:49.481Z,38.27
2022-11-15T02:52:19.032Z,40.27
2022-11-15T02:54:56.292Z,39.67
2022-11-15T02:57:40.400Z,37.37
2022-11-15T03:00:11.658Z,36.83
2022-11-15T03:03:11.638Z,34.40
2022-11-15T03:05:47.116Z,34.50
2022-11-15T03:08:25.659Z,32.97
2022-11-15T03:11:05.298Z,35.40
2022-11-15T03:13:39.959Z,35.10
2022-11-15T03:16:15.768Z,39.87
2022-11-15T03:18:52.362Z,38.20
2022-11-15T03:21:22.024Z,37.73
2022-11-15T03:23:52.787Z,39.17
2022-11-15T03:26:24.071Z,40.77
2022-11-15T03:28:55.277Z,41.80
2022-11-15T03:31:48.603Z,44.73
2022-11-15T03:34:28.648Z,40.87
2022-11-15T03:36:57.169Z,45.87
2022-11-15T03:39:27.234Z,48.97
2022-11-15T03:42:07.172Z,42.57
2022-11-15T03:44:44.121Z,52.30
2022-11-15T03:47:18.781Z,48.83
2022-11-15T03:49:55.062Z,46.03
2022-11-15T03:52:24.818Z,41.73
2022-11-15T03:54:56.177Z,45.13
2022-11-15T03:57:24.839Z,45.30
2022-11-15T03:59:53.127Z,42.67
2022-11-15T04:02:21.968Z,41.10
2022-11-15T04:04:51.597Z,44.93
2022-11-15T04:07:20.180Z,44.50
2022-11-15T04:10:07.341Z,44.47
2022-11-15T04:12:38.211Z,42.77
2022-11-15T04:15:10.439Z,43.87
2022-11-15T04:17:41.963Z,44.97
2022-11-15T04:20:33.583Z,45.57
2022-11-15T04:23:21.157Z,43.17
2022-11-15T04:25:53.251Z,44.60
2022-11-15T04:28:21.811Z,43.83
2022-11-15T04:30:50.231Z,48.03
2022-11-15T04:33:18.444Z,47.57
2022-11-15T04:36:08.152Z,55.50
2022-11-15T04:38:36.402Z,49.07
2022-11-15T04:41:05.535Z,57.13
2022-11-15T04:43:34.138Z,50.83
2022-11-15T04:46:02.516Z,50.23
2022-11-15T04:48:30.733Z,54.17
2022-11-15T04:51:00.358Z,56.90
2022-11-15T04:53:28.615Z,50.67
2022-11-15T04:55:58.676Z,57.97
2022-11-15T04:58:26.956Z,54.43
2022-11-15T05:00:55.274Z,53.93
2022-11-15T05:03:41.390Z,54.43
2022-11-15T05:06:10.989Z,63.07
2022-11-15T05:08:39.177Z,66.13
2022-11-15T05:11:07.802Z,57.60
2022-11-15T05:13:36.047Z,57.80
2022-11-15T05:16:04.357Z,64.47
2022-11-15T05:18:32.697Z,70.47
2022-11-15T05:21:06.693Z,68.50
2022-11-15T05:23:36.272Z,74.90
2022-11-15T05:26:09.351Z,90.50
2022-11-15T05:28:39.124Z,82.20
2022-11-15T05:31:10.278Z,76.83
2022-11-15T05:33:40.292Z,89.63
2022-11-15T05:36:14.595Z,84.97
2022-11-15T05:38:44.499Z,88.73
2022-11-15T05:41:13.581Z,90.60
2022-11-15T05:43:43.199Z,87.17
2022-11-15T05:46:11.891Z,89.30
2022-11-15T05:48:43.856Z,87.43
2022-11-15T05:51:12.421Z,87.43
2022-11-15T05:53:40.756Z,88.63
2022-11-15T05:56:12.182Z,99.33
2022-11-15T05:58:40.803Z,84.23
2022-11-15T06:01:11.104Z,84.63
2022-11-15T06:03:39.407Z,88.10
2022-11-15T06:06:12.247Z,88.97
2022-11-15T06:08:43.406Z,81.53
2022-11-15T06:11:13.028Z,89.23
2022-11-15T06:13:41.260Z,81.93
2022-11-15T06:16:09.842Z,88.83
2022-11-15T06:18:39.133Z,76.73
2022-11-15T06:21:08.121Z,81.90
2022-11-15T06:23:37.488Z,73.60
2022-11-15T06:26:06.132Z,73.17
2022-11-15T06:28:36.346Z,76.43
2022-11-15T06:31:06.149Z,74.50
2022-11-15T06:33:34.731Z,76.73
2022-11-15T06:36:04.224Z,69.23
2022-11-15T06:38:32.623Z,65.93
2022-11-15T06:41:04.882Z,71.00
2022-11-15T06:43:33.824Z,62.43
2022-11-15T06:46:04.999Z,69.43
2022-11-15T06:48:34.587Z,57.97
2022-11-15T06:51:05.088Z,60.73
2022-11-15T06:53:34.525Z,68.33
2022-11-15T06:56:04.214Z,63.87
2022-11-15T06:58:32.660Z,59.93
2022-11-15T07:01:04.340Z,58.10
2022-11-15T07:03:33.318Z,58.17
2022-11-15T07:06:07.143Z,53.90
2022-11-15T07:08:36.987Z,55.17
2022-11-15T07:11:08.441Z,60.53
2022-11-15T07:13:38.352Z,57.67
2022-11-15T07:16:11.096Z,64.43
2022-11-15T07:18:40.997Z,62.00
2022-11-15T07:21:11.948Z,54.77
2022-11-15T07:23:41.320Z,54.10
2022-11-15T07:26:10.741Z,51.33
2022-11-15T07:28:38.950Z,50.93
2022-11-15T07:31:10.570Z,53.60
2022-11-15T07:33:39.088Z,50.10
2022-11-15T07:36:16.365Z,45.07
2022-11-15T07:38:44.710Z,49.07
2022-11-15T07:41:13.032Z,50.27
2022-11-15T07:43:41.246Z,46.27
2022-11-15T07:46:12.385Z,46.13
2022-11-15T07:48:45.610Z,43.97
2022-11-15T07:51:15.487Z,45.50
2022-11-15T07:53:44.256Z,45.90
2022-11-15T07:56:13.229Z,45.57
2022-11-15T07:58:41.888Z,45.13
2022-11-15T08:01:13.413Z,44.97
2022-11-15T08:03:41.752Z,44.37
2022-11-15T08:06:10.111Z,42.33
2022-11-15T08:08:38.311Z,44.43
2022-11-15T08:11:07.561Z,39.83
2022-11-15T08:13:35.991Z,43.17
2022-11-15T08:16:06.602Z,39.77
2022-11-15T08:18:36.640Z,44.93
2022-11-15T08:21:05.861Z,41.13
2022-11-15T08:23:34.269Z,42.23
2022-11-15T08:26:04.041Z,38.83
2022-11-15T08:28:32.873Z,42.47
2022-11-15T08:31:01.318Z,40.03
2022-11-15T08:33:30.330Z,44.53
2022-11-15T08:36:01.491Z,38.40
2022-11-15T08:38:31.778Z,41.07
2022-11-15T08:41:04.830Z,40.30
2022-11-15T08:43:33.435Z,35.20
2022-11-15T08:46:01.949Z,41.10
2022-11-15T08:48:30.357Z,35.23
2022-11-15T08:51:02.429Z,34.93
2022-11-15T08:53:30.630Z,32.43
2022-11-15T08:55:58.882Z,38.13
2022-11-15T08:58:27.213Z,31.10
2022-11-15T09:00:56.056Z,34.37
2022-11-15T09:03:24.341Z,32.73
2022-11-15T09:05:59.337Z,33.10
2022-11-15T09:11:21.814Z,32.23
2022-11-15T09:13:50.164Z,35.33
2022-11-15T09:16:18.383Z,30.73
2022-11-15T09:18:46.765Z,32.83
2022-11-15T09:21:16.414Z,30.07
2022-11-15T09:23:44.691Z,30.43
2022-11-15T09:26:12.969Z,33.60
2022-11-15T09:28:42.844Z,29.90
2022-11-15T09:31:11.785Z,33.27
2022-11-15T09:33:40.052Z,32.53
2022-11-15T09:36:10.842Z,31.73
2022-11-15T09:38:40.757Z,33.23
2022-11-15T09:42:10.422Z,35.50
2022-11-15T09:45:12.528Z,31.27
2022-11-15T09:48:27.392Z,30.13
2022-11-15T09:51:00.811Z,30.03
2022-11-15T09:54:18.674Z,38.07
2022-11-15T09:56:31.254Z,31.77
2022-11-15T09:59:15.383Z,32.20
2022-11-15T10:01:56.345Z,29.67
2022-11-15T10:04:26.058Z,34.60
2022-11-15T10:07:02.288Z,34.70
2022-11-15T10:09:40.134Z,32.07
2022-11-15T10:12:11.343Z,38.20
2022-11-15T10:14:39.628Z,34.37
2022-11-15T10:17:36.827Z,35.87
2022-11-15T10:20:17.195Z,35.10
2022-11-15T10:22:49.450Z,34.23
2022-11-15T10:25:25.138Z,36.53
2022-11-15T10:27:59.466Z,36.63
2022-11-15T10:30:36.145Z,32.00
2022-11-15T10:33:34.687Z,36.73
2022-11-15T10:36:26.680Z,39.40
2022-11-15T10:39:01.064Z,35.37
2022-11-15T10:41:39.100Z,33.30
2022-11-15T10:44:27.991Z,35.60
2022-11-15T10:47:37.705Z,32.73
2022-11-15T10:50:27.661Z,35.17
2022-11-15T10:52:56.448Z,36.93
2022-11-15T10:55:29.311Z,33.30
2022-11-15T10:58:06.238Z,31.73
2022-11-15T11:00:40.914Z,33.83
2022-11-15T11:03:30.551Z,33.17
2022-11-15T11:06:12.336Z,34.43
2022-11-15T11:08:41.153Z,34.00
2022-11-15T11:11:10.113Z,33.07
2022-11-15T11:13:40.875Z,29.10
2022-11-15T11:16:44.325Z,27.13
2022-11-15T11:19:50.576Z,28.03
2022-11-15T11:22:28.508Z,25.40
2022-11-15T11:25:10.785Z,27.10
2022-11-15T11:27:52.729Z,26.23
2022-11-15T11:30:45.072Z,24.83
2022-11-15T11:33:19.607Z,24.07
2022-11-15T11:36:08.605Z,27.20
2022-11-15T11:38:55.898Z,25.70
2022-11-15T11:41:44.487Z,24.80
2022-11-15T11:44:29.972Z,25.27
2022-11-15T11:47:02.781Z,23.07
2022-11-15T11:49:42.275Z,26.40
2022-11-15T11:52:17.321Z,21.70
2022-11-15T11:55:00.925Z,19.00
2022-11-15T11:57:42.259Z,21.60
2022-11-15T12:00:21.754Z,19.83
2022-11-15T12:03:06.439Z,17.63
2022-11-15T12:05:41.621Z,17.43
2022-11-15T12:08:28.479Z,16.83
2022-11-15T12:11:05.880Z,16.03
2022-11-15T12:13:37.728Z,15.97
2022-11-15T12:16:14.640Z,15.27
2022-11-15T12:18:48.246Z,13.20
2022-11-15T12:21:28.876Z,11.90
2022-11-15T12:24:05.092Z,11.83
2022-11-15T12:26:38.828Z,12.30
2022-11-15T12:29:15.463Z,10.33
2022-11-15T12:31:48.143Z,9.63
2022-11-15T12:34:37.245Z,8.93
2022-11-15T12:37:49.840Z,10.47
2022-11-15T12:40:32.037Z,8.67
2022-11-15T12:43:43.425Z,9.70
2022-11-15T12:46:23.227Z,8.20
2022-11-15T12:48:56.376Z,8.90
2022-11-15T12:52:08.250Z,9.77
2022-11-15T12:55:26.335Z,10.33
2022-11-15T12:57:54.607Z,9.43
2022-11-15T13:00:47.981Z,9.53
2022-11-15T13:03:29.138Z,7.43
2022-11-15T13:06:09.075Z,10.37
2022-11-15T13:08:51.273Z,13.87
2022-11-15T13:11:53.417Z,8.10
2022-11-15T13:14:46.694Z,8.87
2022-11-15T13:17:38.686Z,8.07
2022-11-15T13:20:29.567Z,7.23
2022-11-15T13:23:10.653Z,5.60
2022-11-15T13:26:17.481Z,9.07
2022-11-15T13:28:49.582Z,8.20
2022-11-15T13:31:31.832Z,9.00
2022-11-15T13:34:07.321Z,7.73
2022-11-15T13:36:46.300Z,7.30
2022-11-15T13:39:28.599Z,7.03
2022-11-15T13:42:01.240Z,6.23
2022-11-15T13:44:32.844Z,7.27
2022-11-15T13:47:07.323Z,5.77
2022-11-15T13:49:36.638Z,5.40
2022-11-15T13:52:09.232Z,5.00
2022-11-15T13:54:43.963Z,6.70
2022-11-15T13:57:18.171Z,6.00
2022-11-15T13:59:52.935Z,5.30
2022-11-15T14:02:27.369Z,5.17
2022-11-15T14:04:58.767Z,6.43
2022-11-15T14:07:29.818Z,5.40
2022-11-15T14:09:58.286Z,6.70
2022-11-15T14:12:32.754Z,7.70
2022-11-15T14:15:04.565Z,5.00
2022-11-15T14:17:45.776Z,5.23
2022-11-15T14:20:29.538Z,6.27
2022-11-15T14:23:00.173Z,4.87
2022-11-15T14:25:29.618Z,5.60
2022-11-15T14:28:31.866Z,6.97
2022-11-15T14:31:02.067Z,7.13
2022-11-15T14:33:33.387Z,4.73
2022-11-15T14:36:07.423Z,5.17
2022-11-15T14:38:36.238Z,4.90
2022-11-15T14:41:04.932Z,5.00
2022-11-15T14:43:34.613Z,6.23
2022-11-15T14:46:03.041Z,7.80
2022-11-15T14:48:31.858Z,6.07
2022-11-15T14:51:00.316Z,5.03
2022-11-15T14:53:28.599Z,5.10
2022-11-15T14:55:56.841Z,4.70
2022-11-15T14:58:25.003Z,6.33
2022-11-15T15:00:54.652Z,6.90
2022-11-15T15:03:23.115Z,6.90
2022-11-15T15:05:51.561Z,6.37
2022-11-15T15:08:19.781Z,7.33
2022-11-15T15:10:49.313Z,5.23
2022-11-15T15:13:21.155Z,6.80
2022-11-15T15:15:51.064Z,5.53
2022-11-15T15:18:21.515Z,5.83
2022-11-15T15:21:00.954Z,6.00
2022-11-15T15:23:31.778Z,6.40
2022-11-15T15:26:00.254Z,7.13
2022-11-15T15:28:34.058Z,9.27
2022-11-15T15:31:03.403Z,5.83
2022-11-15T15:33:33.234Z,5.90
2022-11-15T15:36:01.610Z,6.03
2022-11-15T15:38:30.209Z,7.47
2022-11-15T15:41:00.563Z,5.93
2022-11-15T15:43:28.769Z,7.53
2022-11-15T15:45:57.139Z,7.80
2022-11-15T15:48:26.006Z,8.20
2022-11-15T15:50:55.564Z,6.53
2022-11-15T15:53:23.843Z,8.07
2022-11-15T15:55:51.987Z,8.20
2022-11-15T15:58:20.271Z,9.13
2022-11-15T16:00:48.511Z,9.30
2022-11-15T16:03:17.049Z,8.03
2022-11-15T16:05:45.323Z,8.07
2022-11-15T16:08:21.415Z,9.50
2022-11-15T16:10:50.893Z,8.60
2022-11-15T16:13:19.509Z,9.10
2022-11-15T16:15:52.748Z,8.77
2022-11-15T16:18:21.291Z,8.53
2022-11-15T16:20:53.133Z,7.67
2022-11-15T16:23:24.662Z,7.30
2022-11-15T16:25:56.604Z,8.83
2022-11-15T16:28:27.819Z,7.83
2022-11-15T16:31:04.955Z,7.37
2022-11-15T16:33:34.396Z,7.37
2022-11-15T16:36:03.508Z,7.43
2022-11-15T16:38:33.682Z,6.87
2022-11-15T16:41:02.257Z,7.27
2022-11-15T16:43:30.576Z,6.20
2022-11-15T16:45:59.020Z,7.83
2022-11-15T16:48:29.442Z,7.13
2022-11-15T16:50:59.595Z,8.23
2022-11-15T16:53:29.655Z,7.60
2022-11-15T16:55:59.513Z,6.67
2022-11-15T16:58:27.741Z,6.73
2022-11-15T17:00:58.050Z,7.10
2022-11-15T17:03:26.890Z,7.07
2022-11-15T17:05:59.457Z,7.57
2022-11-15T17:08:28.661Z,7.47
2022-11-15T17:10:58.654Z,6.97
2022-11-15T17:13:26.911Z,7.00
2022-11-15T17:16:06.854Z,6.60
2022-11-15T17:18:35.635Z,8.13
2022-11-15T17:21:08.834Z,9.27
2022-11-15T17:23:37.171Z,6.13
2022-11-15T17:26:28.704Z,5.77
2022-11-15T17:29:00.950Z,5.80
2022-11-15T17:31:30.714Z,5.27
2022-11-15T17:33:59.617Z,5.60
2022-11-15T17:36:28.106Z,5.43
2022-11-15T17:39:00.080Z,6.60
2022-11-15T17:41:31.382Z,6.33
2022-11-15T17:44:03.363Z,5.90
2022-11-15T17:46:32.180Z,6.93
2022-11-15T17:49:01.375Z,6.53
2022-11-15T17:51:29.699Z,6.37
2022-11-15T17:53:58.624Z,5.87
2022-11-15T17:56:31.582Z,5.67
2022-11-15T17:59:02.066Z,5.63
2022-11-15T18:01:32.585Z,6.20
2022-11-15T18:04:03.627Z,5.80
2022-11-15T18:06:34.769Z,6.73
2022-11-15T18:09:05.318Z,4.20
2022-11-15T18:11:38.673Z,5.70
2022-11-15T18:14:12.571Z,6.23
2022-11-15T18:16:41.165Z,5.13
2022-11-15T18:19:13.306Z,5.23
2022-11-15T18:21:57.217Z,5.80
2022-11-15T18:24:26.752Z,4.23
2022-11-15T18:26:57.013Z,5.33
2022-11-15T18:29:25.665Z,6.13
2022-11-15T18:31:56.220Z,5.83
2022-11-15T18:34:26.135Z,5.57
2022-11-15T18:36:55.714Z,6.40
2022-11-15T18:39:24.155Z,8.43
2022-11-15T18:41:52.432Z,7.50
2022-11-15T18:44:22.044Z,6.27
2022-11-15T18:46:50.940Z,5.97
2022-11-15T18:49:20.943Z,5.23
2022-11-15T18:51:50.162Z,7.03
2022-11-15T18:54:19.247Z,5.03
2022-11-15T18:56:48.023Z,6.17
2022-11-15T18:59:16.739Z,6.67
2022-11-15T19:01:48.424Z,7.03
2022-11-15T19:04:19.207Z,7.07
2022-11-15T19:06:50.820Z,7.43
2022-11-15T19:09:20.926Z,7.90
2022-11-15T19:11:51.651Z,7.23
2022-11-15T19:14:24.218Z,7.27
2022-11-15T19:16:55.122Z,8.00
2022-11-15T19:19:25.243Z,5.53
2022-11-15T19:21:54.272Z,5.17
2022-11-15T19:24:22.841Z,5.40
2022-11-15T19:26:51.161Z,6.50
2022-11-15T19:29:19.460Z,6.37
2022-11-15T19:31:48.653Z,5.93
2022-11-15T19:34:19.121Z,7.33
2022-11-15T19:36:47.507Z,7.70
2022-11-15T19:39:18.509Z,7.23
2022-11-15T19:41:47.750Z,6.80
2022-11-15T19:44:16.883Z,8.57
2022-11-15T19:46:45.339Z,4.83
2022-11-15T19:49:13.984Z,6.67
2022-11-15T19:51:45.340Z,5.37
2022-11-15T19:54:13.754Z,5.63
2022-11-15T19:56:42.076Z,6.63
2022-11-15T19:59:13.580Z,5.33
2022-11-15T20:01:48.017Z,5.07
2022-11-15T20:04:16.512Z,5.10
2022-11-15T20:06:46.425Z,5.17
2022-11-15T20:09:18.133Z,6.27
2022-11-15T20:11:46.404Z,5.33
2022-11-15T20:14:16.139Z,6.70
2022-11-15T20:16:44.440Z,5.10
2022-11-15T20:19:16.014Z,6.13
2022-11-15T20:21:46.074Z,5.00
2022-11-15T20:24:14.603Z,6.17
2022-11-15T20:26:43.870Z,6.47
2022-11-15T20:29:12.622Z,5.27
2022-11-15T20:31:41.077Z,6.33
2022-11-15T20:34:09.669Z,4.97
2022-11-15T20:36:37.989Z,6.77
2022-11-15T20:39:07.674Z,5.27
2022-11-15T20:41:36.039Z,6.60
2022-11-15T20:44:04.680Z,6.07
2022-11-15T20:46:33.033Z,7.43
2022-11-15T20:49:01.571Z,6.60
2022-11-15T20:51:33.281Z,10.23
2022-11-15T20:54:02.169Z,6.87
2022-11-15T20:56:31.907Z,5.47
2022-11-15T20:59:00.278Z,7.23
2022-11-15T21:01:28.817Z,7.77
2022-11-15T21:03:58.231Z,6.13
2022-11-15T21:06:27.849Z,6.90
2022-11-15T21:09:14.683Z,7.17
2022-11-15T21:12:02.567Z,5.77
2022-11-15T21:14:31.166Z,6.93
2022-11-15T21:16:59.499Z,7.30
2022-11-15T21:19:32.679Z,8.80
2022-11-15T21:22:06.175Z,7.17
2022-11-15T21:24:34.676Z,7.40
2022-11-15T21:27:04.942Z,5.70
2022-11-15T21:29:39.764Z,5.57
2022-11-15T21:32:10.104Z,6.03
2022-11-15T21:34:39.339Z,6.90
2022-11-15T21:37:08.726Z,7.30
2022-11-15T21:39:36.990Z,7.30
2022-11-15T21:42:06.974Z,9.03
2022-11-15T21:44:35.232Z,8.03
2022-11-15T21:47:03.582Z,7.50
2022-11-15T21:49:31.760Z,7.13
2022-11-15T21:52:00.066Z,6.80
2022-11-15T21:54:28.289Z,8.17
2022-11-15T21:56:56.657Z,8.10
2022-11-15T21:59:26.613Z,8.33
2022-11-15T22:02:12.259Z,8.70
2022-11-15T22:04:40.520Z,10.57
2022-11-15T22:07:09.091Z,8.33
2022-11-15T22:09:37.583Z,8.83
2022-11-15T22:12:06.035Z,9.07
2022-11-15T22:14:35.671Z,9.33
2022-11-15T22:17:05.563Z,9.23
2022-11-15T22:19:33.827Z,11.63
2022-11-15T22:22:02.044Z,11.80
2022-11-15T22:24:31.790Z,13.00
2022-11-15T22:27:00.653Z,10.80
2022-11-15T22:29:29.061Z,9.80
2022-11-15T22:31:58.649Z,9.90
2022-11-15T22:34:26.863Z,9.63
2022-11-15T22:37:19.790Z,10.13
2022-11-15T22:39:43.357Z,11.07
2022-11-15T22:42:11.627Z,10.90
2022-11-15T22:44:39.804Z,11.67
2022-11-15T22:47:09.409Z,9.43
2022-11-15T22:49:37.804Z,11.50
2022-11-15T22:52:06.544Z,11.73
2022-11-15T22:54:35.195Z,12.47
2022-11-15T22:57:04.139Z,11.07
2022-11-15T22:59:32.693Z,12.53
2022-11-15T23:02:00.981Z,10.07
2022-11-15T23:04:30.889Z,10.77
2022-11-15T23:06:59.402Z,10.97
2022-11-15T23:09:27.812Z,12.67
2022-11-15T23:12:13.628Z,12.90
2022-11-15T23:14:41.943Z,13.33
2022-11-15T23:17:10.209Z,13.63
2022-11-15T23:19:39.948Z,13.63
2022-11-15T23:22:26.073Z,13.83
2022-11-15T23:24:55.903Z,12.80
2022-11-15T23:27:24.114Z,13.20
2022-11-15T23:30:09.909Z,12.97
2022-11-15T23:32:55.965Z,14.53
2022-11-15T23:35:26.028Z,12.30
2022-11-15T23:37:54.259Z,11.87
2022-11-15T23:40:23.253Z,13.73
2022-11-15T23:42:51.686Z,13.20
2022-11-15T23:45:19.893Z,14.63
2022-11-15T23:47:48.126Z,15.70
2022-11-15T23:50:16.715Z,15.00
2022-11-15T23:52:46.289Z,15.73
2022-11-15T23:55:14.547Z,14.13
2022-11-15T23:57:42.879Z,14.80
